Time;durP1;ratioP1;P1;durP2;ratioP2;P2;SDS_P1;SDS_P2;PMS_P1;PMS_P2;Temp;Humidity;BMP_temperature;BMP_pressure;BME280_temperature;BME280_humidity;BME280_pressure;Samples;Min_cycle;Max_cycle;Signal;HPM_P1;HPM_P2
2024/04/26 00:00:11;;;;;;;0.20;0.10;;;;;;;;;;5372333;26;20048;-79
2024/04/26 00:02:38;;;;;;;0.20;0.10;;;;;;;;;;5365667;26;20020;-81
2024/04/26 00:05:04;;;;;;;0.20;0.20;;;;;;;;;;5372518;26;20000;-78
2024/04/26 00:07:30;;;;;;;0.20;0.10;;;;;;;;;;5363379;26;20026;-80
2024/04/26 00:09:56;;;;;;;0.20;0.10;;;;;;;;;;5362800;26;20015;-79
2024/04/26 00:12:22;;;;;;;0.40;0.40;;;;;;;;;;5366220;26;20011;-80
2024/04/26 00:14:48;;;;;;;0.20;0.10;;;;;;;;;;5365166;26;20693;-80
2024/04/26 00:17:14;;;;;;;0.35;0.15;;;;;;;;;;5371992;26;20008;-78
2024/04/26 00:19:43;;;;;;;0.20;0.20;;;;;;;;;;5361772;26;22282;-80
2024/04/26 00:22:09;;;;;;;0.20;0.10;;;;;;;;;;5371585;26;20710;-79
2024/04/26 00:24:38;;;;;;;0.20;0.17;;;;;;;;;;5368843;26;22077;-79
2024/04/26 00:27:04;;;;;;;0.20;0.10;;;;;;;;;;5365333;26;20028;-77
2024/04/26 00:29:30;;;;;;;0.20;0.10;;;;;;;;;;5362587;26;20008;-79
2024/04/26 00:31:56;;;;;;;0.20;0.10;;;;;;;;;;5365769;26;20008;-78
2024/04/26 00:34:22;;;;;;;0.30;0.30;;;;;;;;;;5383735;26;19999;-78
2024/04/26 00:36:48;;;;;;;0.30;0.20;;;;;;;;;;5372064;26;19999;-79
2024/04/26 00:39:15;;;;;;;0.20;0.05;;;;;;;;;;5366901;26;20048;-78
2024/04/26 00:41:41;;;;;;;0.20;0.10;;;;;;;;;;5368945;26;20069;-79
2024/04/26 00:44:11;;;;;;;0.20;0.10;;;;;;;;;;5363693;26;20019;-79
2024/04/26 00:46:39;;;;;;;0.20;0.10;;;;;;;;;;5365841;26;20008;-78
2024/04/26 00:49:06;;;;;;;0.20;0.10;;;;;;;;;;5370892;26;19999;-79
2024/04/26 00:51:32;;;;;;;0.20;0.10;;;;;;;;;;5368739;26;20434;-80
2024/04/26 00:53:59;;;;;;;0.60;0.40;;;;;;;;;;5391169;26;20234;-78
2024/04/26 00:56:26;;;;;;;0.30;0.30;;;;;;;;;;5365403;26;19999;-80
2024/04/26 00:58:52;;;;;;;0.50;0.40;;;;;;;;;;5363351;26;20106;-79
2024/04/26 01:01:18;;;;;;;0.20;0.10;;;;;;;;;;5364458;26;20015;-79
2024/04/26 01:03:46;;;;;;;0.20;0.10;;;;;;;;;;5367800;26;20007;-80
2024/04/26 01:06:12;;;;;;;0.20;0.10;;;;;;;;;;5368771;26;20003;-81
2024/04/26 01:08:38;;;;;;;1.55;0.95;;;;;;;;;;5369344;26;20499;-80
2024/04/26 01:11:04;;;;;;;0.20;0.20;;;;;;;;;;5361777;26;20799;-81
2024/04/26 01:13:34;;;;;;;0.20;0.10;;;;;;;;;;5360459;26;20008;-79
2024/04/26 01:16:02;;;;;;;0.20;0.10;;;;;;;;;;5367029;26;21973;-79
2024/04/26 01:18:28;;;;;;;0.20;0.10;;;;;;;;;;5366217;26;22575;-79
2024/04/26 01:20:54;;;;;;;0.20;0.10;;;;;;;;;;5365631;26;20016;-78
2024/04/26 01:23:20;;;;;;;0.20;0.10;;;;;;;;;;5372625;26;20185;-79
2024/04/26 01:25:56;;;;;;;0.20;0.10;;;;;;;;;;5367062;26;20003;-81
2024/04/26 01:28:22;;;;;;;0.20;0.10;;;;;;;;;;5360907;26;20093;-79
2024/04/26 01:30:49;;;;;;;1.00;0.85;;;;;;;;;;5363194;26;20808;-81
2024/04/26 01:33:15;;;;;;;0.20;0.10;;;;;;;;;;5363798;26;20028;-78
2024/04/26 01:35:41;;;;;;;0.20;0.20;;;;;;;;;;5389913;26;20502;-79
2024/04/26 01:38:08;;;;;;;0.45;0.30;;;;;;;;;;5397162;26;20070;-80
2024/04/26 01:40:34;;;;;;;0.20;0.00;;;;;;;;;;5377872;26;20008;-78
2024/04/26 01:43:00;;;;;;;0.30;0.30;;;;;;;;;;5359774;26;20628;-78
2024/04/26 01:45:26;;;;;;;0.20;0.10;;;;;;;;;;5363596;26;19995;-79
2024/04/26 01:47:53;;;;;;;0.20;0.00;;;;;;;;;;5370417;26;20010;-78
2024/04/26 01:50:19;;;;;;;0.20;0.00;;;;;;;;;;5388207;26;20007;-79
2024/04/26 01:52:45;;;;;;;0.20;0.10;;;;;;;;;;5368190;26;20014;-79
2024/04/26 01:55:13;;;;;;;0.20;0.10;;;;;;;;;;5362348;26;20003;-79
2024/04/26 01:57:39;;;;;;;0.20;0.15;;;;;;;;;;5366996;26;20003;-80
2024/04/26 02:00:06;;;;;;;0.20;0.10;;;;;;;;;;5366022;26;20008;-79
2024/04/26 02:02:32;;;;;;;0.20;0.10;;;;;;;;;;5366304;26;21009;-79
2024/04/26 02:04:58;;;;;;;0.20;0.10;;;;;;;;;;5365538;26;20003;-81
2024/04/26 02:07:24;;;;;;;0.43;0.20;;;;;;;;;;5378369;26;20542;-80
2024/04/26 02:09:51;;;;;;;0.52;0.45;;;;;;;;;;5386932;26;20003;-79
2024/04/26 02:12:17;;;;;;;0.22;0.13;;;;;;;;;;5365036;26;20016;-80
2024/04/26 02:14:44;;;;;;;0.20;0.00;;;;;;;;;;5364830;26;20005;-79
2024/04/26 02:17:10;;;;;;;0.20;0.20;;;;;;;;;;5362276;26;20004;-79
2024/04/26 02:19:36;;;;;;;0.20;0.10;;;;;;;;;;5365625;26;20011;-80
2024/04/26 02:22:02;;;;;;;0.20;0.10;;;;;;;;;;5362344;26;20088;-80
2024/04/26 02:24:29;;;;;;;0.20;0.20;;;;;;;;;;5370027;26;20014;-79
2024/04/26 02:26:55;;;;;;;0.20;0.10;;;;;;;;;;5363727;26;20010;-77
2024/04/26 02:29:21;;;;;;;0.30;0.20;;;;;;;;;;5361671;26;20018;-80
2024/04/26 02:31:48;;;;;;;0.20;0.10;;;;;;;;;;5364686;26;20023;-79
2024/04/26 02:34:15;;;;;;;0.20;0.10;;;;;;;;;;5358163;26;21854;-80
2024/04/26 02:36:42;;;;;;;0.20;0.05;;;;;;;;;;5366662;26;20633;-79
2024/04/26 02:39:08;;;;;;;0.20;0.10;;;;;;;;;;5376275;26;20084;-81
2024/04/26 02:41:34;;;;;;;0.20;0.10;;;;;;;;;;5359248;26;20010;-80
2024/04/26 02:44:03;;;;;;;0.22;0.22;;;;;;;;;;5364721;26;20004;-80
2024/04/26 02:46:29;;;;;;;0.20;0.10;;;;;;;;;;5364594;26;20008;-79
2024/04/26 02:48:56;;;;;;;0.20;0.10;;;;;;;;;;5361724;26;20026;-79
2024/04/26 02:51:22;;;;;;;0.20;0.08;;;;;;;;;;5356251;26;20073;-79
2024/04/26 02:53:48;;;;;;;0.20;0.10;;;;;;;;;;5372617;26;20023;-79
2024/04/26 02:56:14;;;;;;;0.20;0.10;;;;;;;;;;5365721;26;20000;-80
2024/04/26 02:58:40;;;;;;;0.20;0.10;;;;;;;;;;5363493;26;20008;-79
2024/04/26 03:01:08;;;;;;;0.20;0.10;;;;;;;;;;5359233;26;20037;-79
2024/04/26 03:03:38;;;;;;;0.20;0.10;;;;;;;;;;5367105;26;20780;-79
2024/04/26 03:06:08;;;;;;;0.20;0.10;;;;;;;;;;5360941;26;20007;-78
2024/04/26 03:08:34;;;;;;;0.20;0.10;;;;;;;;;;5366543;26;22681;-79
2024/04/26 03:11:01;;;;;;;0.55;0.20;;;;;;;;;;5367825;26;20015;-79
2024/04/26 03:13:27;;;;;;;0.20;0.10;;;;;;;;;;5362823;26;19996;-79
2024/04/26 03:15:53;;;;;;;0.20;0.10;;;;;;;;;;5361357;26;20005;-78
2024/04/26 03:18:19;;;;;;;0.20;0.10;;;;;;;;;;5366115;26;20021;-79
2024/04/26 03:20:51;;;;;;;0.20;0.10;;;;;;;;;;5363354;26;20004;-78
2024/04/26 03:23:20;;;;;;;0.30;0.20;;;;;;;;;;5363270;26;20002;-78
2024/04/26 03:25:47;;;;;;;0.20;0.10;;;;;;;;;;5373998;26;20008;-79
2024/04/26 03:28:16;;;;;;;0.20;0.10;;;;;;;;;;5366379;26;20631;-80
2024/04/26 03:30:42;;;;;;;0.20;0.10;;;;;;;;;;5362660;26;20015;-79
2024/04/26 03:33:09;;;;;;;0.20;0.10;;;;;;;;;;5401686;26;20450;-79
2024/04/26 03:35:35;;;;;;;0.20;0.10;;;;;;;;;;5405945;26;19995;-79
2024/04/26 03:38:01;;;;;;;0.20;0.10;;;;;;;;;;5391086;26;20110;-79
2024/04/26 03:40:29;;;;;;;0.20;0.10;;;;;;;;;;5378845;26;20456;-79
2024/04/26 03:42:55;;;;;;;0.20;0.10;;;;;;;;;;5367537;26;20055;-78
2024/04/26 03:45:21;;;;;;;0.20;0.10;;;;;;;;;;5363009;26;20019;-78
2024/04/26 03:47:47;;;;;;;0.20;0.10;;;;;;;;;;5372214;26;19996;-80
2024/04/26 03:50:15;;;;;;;0.20;0.10;;;;;;;;;;5367444;26;20013;-79
2024/04/26 03:52:41;;;;;;;0.20;0.10;;;;;;;;;;5369197;26;20003;-79
2024/04/26 03:55:07;;;;;;;0.20;0.10;;;;;;;;;;5367137;26;20033;-79
2024/04/26 03:57:34;;;;;;;0.52;0.20;;;;;;;;;;5373478;26;20009;-79
2024/04/26 04:00:00;;;;;;;0.20;0.13;;;;;;;;;;5365211;26;20111;-79
2024/04/26 04:02:26;;;;;;;0.75;0.52;;;;;;;;;;5360317;26;20007;-78
2024/04/26 04:04:52;;;;;;;0.20;0.20;;;;;;;;;;5365760;26;20007;-78
2024/04/26 04:07:18;;;;;;;0.20;0.10;;;;;;;;;;5361543;26;20058;-78
2024/04/26 04:09:44;;;;;;;0.20;0.10;;;;;;;;;;5367287;26;20719;-80
2024/04/26 04:12:11;;;;;;;0.30;0.22;;;;;;;;;;5377639;26;20004;-79
2024/04/26 04:14:37;;;;;;;0.20;0.10;;;;;;;;;;5367726;26;20791;-79
2024/04/26 04:17:03;;;;;;;0.20;0.10;;;;;;;;;;5359034;26;20008;-81
2024/04/26 04:19:29;;;;;;;0.20;0.10;;;;;;;;;;5369463;26;20016;-79
2024/04/26 04:21:55;;;;;;;0.35;0.35;;;;;;;;;;5366909;26;20009;-80
2024/04/26 04:24:21;;;;;;;0.20;0.10;;;;;;;;;;5361981;26;20011;-79
2024/04/26 04:26:47;;;;;;;0.20;0.10;;;;;;;;;;5362534;26;20079;-78
2024/04/26 04:29:13;;;;;;;0.20;0.10;;;;;;;;;;5360924;26;20004;-79
2024/04/26 04:31:39;;;;;;;1.27;0.65;;;;;;;;;;5360139;26;20008;-80
2024/04/26 04:34:06;;;;;;;0.20;0.10;;;;;;;;;;5359612;26;20021;-78
2024/04/26 04:36:32;;;;;;;0.20;0.10;;;;;;;;;;5365678;26;20019;-79
2024/04/26 04:39:00;;;;;;;0.20;0.00;;;;;;;;;;5360888;26;20007;-78
2024/04/26 04:41:26;;;;;;;0.20;0.15;;;;;;;;;;5357215;26;20007;-79
2024/04/26 04:43:52;;;;;;;0.20;0.10;;;;;;;;;;5371071;26;20022;-79
2024/04/26 04:46:18;;;;;;;0.20;0.10;;;;;;;;;;5356351;26;20019;-79
2024/04/26 04:48:44;;;;;;;0.20;0.10;;;;;;;;;;5368683;26;20010;-79
2024/04/26 04:51:11;;;;;;;0.20;0.10;;;;;;;;;;5363576;26;20018;-79
2024/04/26 04:53:37;;;;;;;0.40;0.40;;;;;;;;;;5362946;26;20028;-78
2024/04/26 04:56:03;;;;;;;2.33;0.45;;;;;;;;;;5361629;26;20062;-79
2024/04/26 04:58:29;;;;;;;0.20;0.10;;;;;;;;;;5369834;26;20476;-79
2024/04/26 05:00:55;;;;;;;0.20;0.10;;;;;;;;;;5359134;26;20148;-78
2024/04/26 05:03:22;;;;;;;0.20;0.10;;;;;;;;;;5356787;26;20041;-78
2024/04/26 05:05:49;;;;;;;0.20;0.10;;;;;;;;;;5359853;26;20057;-80
2024/04/26 05:08:15;;;;;;;0.20;0.10;;;;;;;;;;5355779;26;20118;-78
2024/04/26 05:10:41;;;;;;;0.20;0.10;;;;;;;;;;5382995;21;20113;-84
2024/04/26 05:13:07;;;;;;;0.20;0.10;;;;;;;;;;5371028;26;20093;-83
2024/04/26 05:15:34;;;;;;;0.22;0.13;;;;;;;;;;5344850;26;20552;-84
2024/04/26 05:18:01;;;;;;;0.20;0.10;;;;;;;;;;5338307;26;20462;-84
2024/04/26 05:20:27;;;;;;;0.20;0.10;;;;;;;;;;5374638;26;20004;-86
2024/04/26 05:22:53;;;;;;;0.20;0.10;;;;;;;;;;5368524;26;19996;-84
2024/04/26 05:25:20;;;;;;;2.75;0.40;;;;;;;;;;5366769;26;20019;-84
2024/04/26 05:27:46;;;;;;;0.28;0.20;;;;;;;;;;5369689;26;20016;-84
2024/04/26 05:30:14;;;;;;;0.20;0.00;;;;;;;;;;5377656;26;20016;-84
2024/04/26 05:32:41;;;;;;;0.20;0.20;;;;;;;;;;5363326;26;20036;-84
2024/04/26 05:35:07;;;;;;;0.20;0.10;;;;;;;;;;5362881;26;20392;-84
2024/04/26 05:37:33;;;;;;;0.20;0.10;;;;;;;;;;5386075;26;20019;-84
2024/04/26 05:39:59;;;;;;;0.20;0.20;;;;;;;;;;5352523;26;20356;-85
2024/04/26 05:42:25;;;;;;;0.20;0.10;;;;;;;;;;5352887;26;20031;-84
2024/04/26 05:44:51;;;;;;;0.20;0.20;;;;;;;;;;5382682;26;20140;-85
2024/04/26 05:47:17;;;;;;;0.20;0.10;;;;;;;;;;5350165;26;20008;-83
2024/04/26 05:49:44;;;;;;;0.45;0.40;;;;;;;;;;5338973;26;20545;-84
2024/04/26 05:52:11;;;;;;;0.20;0.10;;;;;;;;;;5377776;26;20007;-84
2024/04/26 05:54:37;;;;;;;0.20;0.10;;;;;;;;;;5342500;26;20018;-84
2024/04/26 05:57:03;;;;;;;0.20;0.10;;;;;;;;;;5372120;26;20007;-84
2024/04/26 05:59:29;;;;;;;0.20;0.10;;;;;;;;;;5342598;26;20007;-84
2024/04/26 06:01:55;;;;;;;0.20;0.10;;;;;;;;;;5378976;26;20343;-83
2024/04/26 06:04:21;;;;;;;1.65;0.40;;;;;;;;;;5376346;26;20044;-83
2024/04/26 06:06:50;;;;;;;0.20;0.10;;;;;;;;;;5345102;26;20100;-84
2024/04/26 06:09:19;;;;;;;0.20;0.10;;;;;;;;;;5381447;26;20337;-83
2024/04/26 06:11:45;;;;;;;0.35;0.35;;;;;;;;;;5381186;26;20007;-85
2024/04/26 06:14:11;;;;;;;0.20;0.10;;;;;;;;;;5387377;26;20018;-83
2024/04/26 06:16:37;;;;;;;0.20;0.10;;;;;;;;;;5371993;26;19995;-85
2024/04/26 06:19:03;;;;;;;0.20;0.20;;;;;;;;;;5400505;26;20531;-84
2024/04/26 06:21:30;;;;;;;0.20;0.10;;;;;;;;;;5401666;26;19995;-83
2024/04/26 06:23:56;;;;;;;0.20;0.00;;;;;;;;;;5403172;26;19996;-83
2024/04/26 06:26:22;;;;;;;0.40;0.40;;;;;;;;;;5369671;26;20106;-83
2024/04/26 06:28:49;;;;;;;0.57;0.57;;;;;;;;;;5402454;26;20019;-83
2024/04/26 06:31:16;;;;;;;0.20;0.20;;;;;;;;;;5391542;26;19996;-83
2024/04/26 06:33:42;;;;;;;0.20;0.10;;;;;;;;;;5401501;26;20010;-83
2024/04/26 06:36:08;;;;;;;0.20;0.10;;;;;;;;;;5398829;26;20838;-83
2024/04/26 06:38:35;;;;;;;0.20;0.15;;;;;;;;;;5401707;26;20000;-84
2024/04/26 06:41:01;;;;;;;0.20;0.20;;;;;;;;;;5392330;26;20019;-85
2024/04/26 06:43:27;;;;;;;0.38;0.32;;;;;;;;;;5392768;26;20008;-84
2024/04/26 06:45:53;;;;;;;0.20;0.10;;;;;;;;;;5390489;26;20026;-83
2024/04/26 06:48:19;;;;;;;0.20;0.10;;;;;;;;;;5366764;26;20444;-83
2024/04/26 06:50:45;;;;;;;0.20;0.10;;;;;;;;;;5392708;26;19999;-85
2024/04/26 06:53:13;;;;;;;0.20;0.10;;;;;;;;;;5358835;26;20018;-84
2024/04/26 06:55:39;;;;;;;0.20;0.10;;;;;;;;;;5361308;26;19996;-84
2024/04/26 06:58:05;;;;;;;0.20;0.10;;;;;;;;;;5395742;26;20007;-81
2024/04/26 07:00:31;;;;;;;0.30;0.30;;;;;;;;;;5358432;26;20482;-83
2024/04/26 07:02:57;;;;;;;0.20;0.20;;;;;;;;;;5393864;26;20008;-83
2024/04/26 07:05:23;;;;;;;0.20;0.10;;;;;;;;;;5392404;26;20453;-84
2024/04/26 07:07:50;;;;;;;0.20;0.10;;;;;;;;;;5388692;26;20010;-83
2024/04/26 07:10:16;;;;;;;0.20;0.10;;;;;;;;;;5368461;26;20010;-85
2024/04/26 07:12:42;;;;;;;1.02;0.93;;;;;;;;;;5383846;26;20076;-85
2024/04/26 07:15:08;;;;;;;0.20;0.10;;;;;;;;;;5362595;26;20015;-84
2024/04/26 07:17:38;;;;;;;0.20;0.00;;;;;;;;;;5374640;26;20524;-84
2024/04/26 07:36:20;;;;;;;;;;;;;;;;;;;;;
2024/04/26 07:42:48;;;;;;;0.20;0.10;;;;;;;;;;5518994;21;20016;-83
2024/04/26 07:46:12;;;;;;;;;;;;;;;;;;;;;
2024/04/26 07:55:03;;;;;;;0.20;0.10;;;;;;;;;;5858494;21;20011;-82
2024/04/26 08:05:47;;;;;;;0.20;0.10;;;;;;;;;;5301821;26;20515;-84
2024/04/26 08:08:58;;;;;;;0.20;0.10;;;;;;;;;;5243482;26;20005;-84
2024/04/26 08:14:38;;;;;;;0.20;0.10;;;;;;;;;;5640770;21;20016;-85
2024/04/26 08:56:29;;;;;;;0.20;0.10;;;;;;;;;;5284608;26;20010;-83
2024/04/26 08:58:56;;;;;;;0.52;0.50;;;;;;;;;;5329767;26;20012;-82
2024/04/26 09:01:22;;;;;;;0.20;0.00;;;;;;;;;;5298223;26;20424;-81
2024/04/26 09:03:49;;;;;;;0.20;0.10;;;;;;;;;;5271736;26;20756;-82
2024/04/26 09:08:43;;;;;;;0.20;0.00;;;;;;;;;;5352111;26;20027;-81
2024/04/26 09:11:16;;;;;;;0.20;0.10;;;;;;;;;;5382936;26;20014;-80
2024/04/26 09:13:43;;;;;;;0.20;0.10;;;;;;;;;;5368492;26;20087;-80
2024/04/26 09:16:09;;;;;;;0.20;0.10;;;;;;;;;;5368958;26;19996;-80
2024/04/26 09:18:35;;;;;;;0.20;0.10;;;;;;;;;;5349895;26;19997;-80
2024/04/26 09:21:02;;;;;;;0.20;0.10;;;;;;;;;;5353515;26;20004;-82
2024/04/26 09:23:29;;;;;;;0.20;0.10;;;;;;;;;;5349328;26;19996;-80
2024/04/26 09:26:04;;;;;;;0.20;0.10;;;;;;;;;;5352007;26;20004;-80
2024/04/26 09:28:30;;;;;;;0.20;0.10;;;;;;;;;;5362812;26;20016;-78
2024/04/26 09:30:56;;;;;;;0.20;0.10;;;;;;;;;;5358604;26;20085;-81
2024/04/26 09:33:24;;;;;;;0.20;0.20;;;;;;;;;;5360704;26;20001;-81
2024/04/26 09:35:51;;;;;;;0.20;0.10;;;;;;;;;;5363409;26;20011;-77
2024/04/26 09:38:21;;;;;;;0.20;0.10;;;;;;;;;;5355980;26;20089;-80
2024/04/26 09:40:48;;;;;;;0.20;0.10;;;;;;;;;;5344003;26;20008;-79
2024/04/26 09:43:16;;;;;;;0.20;0.10;;;;;;;;;;5364035;26;20022;-80
2024/04/26 09:45:42;;;;;;;0.20;0.10;;;;;;;;;;5354004;26;20028;-81
2024/04/26 09:48:09;;;;;;;0.20;0.10;;;;;;;;;;5351473;26;20019;-81
2024/04/26 09:50:35;;;;;;;0.28;0.20;;;;;;;;;;5351685;26;20007;-80
2024/04/26 09:53:01;;;;;;;0.20;0.10;;;;;;;;;;5356745;26;20004;-80
2024/04/26 09:55:28;;;;;;;0.20;0.10;;;;;;;;;;5369062;26;20011;-80
2024/04/26 09:57:54;;;;;;;0.20;0.10;;;;;;;;;;5360651;26;20016;-79
2024/04/26 10:00:20;;;;;;;0.20;0.10;;;;;;;;;;5343784;26;20019;-80
2024/04/26 10:02:50;;;;;;;0.20;0.10;;;;;;;;;;5359206;26;20476;-80
2024/04/26 10:05:19;;;;;;;0.20;0.10;;;;;;;;;;5361435;26;20475;-79
2024/04/26 10:08:04;;;;;;;0.20;0.10;;;;;;;;;;5359231;26;20012;-82
2024/04/26 10:10:31;;;;;;;0.20;0.10;;;;;;;;;;5357892;26;19997;-78
2024/04/26 10:13:02;;;;;;;0.20;0.20;;;;;;;;;;5358231;26;19997;-83
2024/04/26 10:15:29;;;;;;;0.20;0.10;;;;;;;;;;5347699;26;20020;-80
2024/04/26 10:17:55;;;;;;;0.20;0.10;;;;;;;;;;5356061;26;20005;-81
2024/04/26 10:20:31;;;;;;;0.20;0.10;;;;;;;;;;5354728;26;20000;-82
2024/04/26 10:23:04;;;;;;;0.20;0.00;;;;;;;;;;5361697;26;20004;-80
2024/04/26 10:25:31;;;;;;;0.20;0.10;;;;;;;;;;5363366;26;20011;-82
2024/04/26 10:28:10;;;;;;;0.20;0.10;;;;;;;;;;5368741;26;20012;-81
2024/04/26 10:30:36;;;;;;;0.75;0.50;;;;;;;;;;5380316;26;20016;-80
2024/04/26 10:33:03;;;;;;;0.20;0.10;;;;;;;;;;5367574;26;20046;-81
2024/04/26 10:35:30;;;;;;;0.20;0.10;;;;;;;;;;5363407;26;20001;-80
2024/04/26 10:38:00;;;;;;;0.20;0.10;;;;;;;;;;5353525;26;20469;-80
2024/04/26 10:40:26;;;;;;;0.20;0.17;;;;;;;;;;5359118;26;20522;-80
2024/04/26 10:42:56;;;;;;;0.20;0.10;;;;;;;;;;5355307;26;20013;-79
2024/04/26 10:45:22;;;;;;;0.20;0.10;;;;;;;;;;5352404;26;20326;-80
2024/04/26 10:47:53;;;;;;;0.20;0.10;;;;;;;;;;5351333;26;20010;-80
2024/04/26 10:50:20;;;;;;;0.20;0.00;;;;;;;;;;5349681;26;20063;-80
2024/04/26 10:52:46;;;;;;;0.20;0.00;;;;;;;;;;5353155;26;20000;-81
2024/04/26 10:55:12;;;;;;;0.20;0.10;;;;;;;;;;5357434;26;20004;-80
2024/04/26 10:57:39;;;;;;;0.20;0.10;;;;;;;;;;5352715;26;20001;-81
2024/04/26 11:00:07;;;;;;;0.20;0.10;;;;;;;;;;5357249;26;20094;-79
2024/04/26 11:02:33;;;;;;;0.20;0.10;;;;;;;;;;5349822;26;20019;-81
2024/04/26 11:05:10;;;;;;;0.20;0.10;;;;;;;;;;5360902;26;20040;-82
2024/04/26 11:07:38;;;;;;;0.20;0.10;;;;;;;;;;5355908;26;19997;-81
2024/04/26 11:10:05;;;;;;;0.20;0.10;;;;;;;;;;5354965;26;20021;-83
2024/04/26 11:12:40;;;;;;;0.20;0.10;;;;;;;;;;5368245;26;20029;-83
2024/04/26 11:15:07;;;;;;;0.25;0.25;;;;;;;;;;5355846;26;20008;-82
2024/04/26 11:17:34;;;;;;;0.20;0.10;;;;;;;;;;5369531;26;20033;-81
2024/04/26 11:20:16;;;;;;;;;;;;;;;;;;;;;
2024/04/26 11:22:46;;;;;;;0.20;0.00;;;;;;;;;;5353013;26;20005;-81
2024/04/26 11:25:14;;;;;;;0.20;0.10;;;;;;;;;;5327761;26;20000;-83
2024/04/26 11:27:50;;;;;;;0.20;0.10;;;;;;;;;;5354507;26;20025;-80
2024/04/26 11:30:22;;;;;;;0.20;0.10;;;;;;;;;;5357664;26;20000;-80
2024/04/26 11:32:51;;;;;;;0.20;0.00;;;;;;;;;;5353663;26;20270;-81
2024/04/26 11:35:20;;;;;;;0.20;0.00;;;;;;;;;;5347882;26;20676;-81
2024/04/26 11:37:46;;;;;;;0.20;0.10;;;;;;;;;;5353532;26;19997;-81
2024/04/26 11:40:13;;;;;;;0.20;0.10;;;;;;;;;;5356784;26;20001;-82
2024/04/26 11:42:39;;;;;;;0.20;0.00;;;;;;;;;;5352612;26;20015;-80
2024/04/26 11:45:08;;;;;;;0.20;0.20;;;;;;;;;;5355344;26;20042;-83
2024/04/26 11:47:36;;;;;;;0.20;0.10;;;;;;;;;;5348013;26;20005;-81
2024/04/26 11:50:03;;;;;;;0.20;0.10;;;;;;;;;;5364667;26;20009;-81
2024/04/26 11:52:31;;;;;;;0.20;0.10;;;;;;;;;;5350167;26;20379;-82
2024/04/26 11:55:00;;;;;;;0.20;0.10;;;;;;;;;;5356198;26;20004;-81
2024/04/26 11:57:26;;;;;;;0.20;0.00;;;;;;;;;;5366818;26;20041;-82
2024/04/26 11:59:52;;;;;;;0.20;0.00;;;;;;;;;;5355535;26;20020;-81
2024/04/26 12:02:24;;;;;;;0.20;0.10;;;;;;;;;;5348559;26;19997;-80
2024/04/26 12:04:50;;;;;;;0.20;0.10;;;;;;;;;;5358633;26;20001;-81
2024/04/26 12:07:16;;;;;;;0.20;0.10;;;;;;;;;;5356466;26;20071;-82
2024/04/26 12:09:43;;;;;;;0.20;0.10;;;;;;;;;;5363008;26;20005;-84
2024/04/26 12:12:09;;;;;;;0.20;0.10;;;;;;;;;;5358580;26;20015;-81
2024/04/26 12:14:38;;;;;;;0.20;0.10;;;;;;;;;;5356495;26;20016;-81
2024/04/26 12:17:05;;;;;;;0.20;0.10;;;;;;;;;;5348096;26;19997;-83
2024/04/26 12:19:32;;;;;;;0.20;0.08;;;;;;;;;;5350167;26;20004;-79
2024/04/26 12:21:58;;;;;;;0.20;0.10;;;;;;;;;;5351107;26;20469;-82
2024/04/26 12:24:27;;;;;;;0.20;0.10;;;;;;;;;;5356387;26;20052;-84
2024/04/26 12:27:03;;;;;;;0.20;0.10;;;;;;;;;;5366206;26;20039;-83
2024/04/26 12:29:34;;;;;;;0.28;0.20;;;;;;;;;;5361307;26;19996;-80
2024/04/26 12:32:07;;;;;;;0.20;0.10;;;;;;;;;;5349726;26;20072;-83
2024/04/26 12:34:38;;;;;;;0.20;0.00;;;;;;;;;;5357028;26;20046;-83
2024/04/26 12:37:04;;;;;;;0.20;0.10;;;;;;;;;;5362913;26;20000;-81
2024/04/26 12:39:31;;;;;;;0.20;0.10;;;;;;;;;;5361259;26;20000;-82
2024/04/26 12:41:58;;;;;;;0.20;0.00;;;;;;;;;;5361685;26;20379;-81
2024/04/26 12:44:24;;;;;;;0.20;0.00;;;;;;;;;;5358391;26;20839;-80
2024/04/26 12:46:53;;;;;;;0.20;0.00;;;;;;;;;;5366561;26;20015;-82
2024/04/26 12:49:19;;;;;;;0.25;0.20;;;;;;;;;;5355194;26;20000;-81
2024/04/26 12:51:46;;;;;;;0.20;0.10;;;;;;;;;;5359616;26;20014;-83
2024/04/26 12:54:12;;;;;;;0.20;0.10;;;;;;;;;;5350426;26;20005;-83
2024/04/26 12:56:38;;;;;;;0.20;0.10;;;;;;;;;;5358910;26;20008;-84
2024/04/26 12:59:04;;;;;;;0.20;0.10;;;;;;;;;;5360799;26;19996;-83
2024/04/26 13:01:30;;;;;;;0.20;0.10;;;;;;;;;;5364755;26;19996;-79
2024/04/26 13:03:56;;;;;;;0.20;0.00;;;;;;;;;;5363659;26;20001;-80
2024/04/26 13:06:25;;;;;;;0.20;0.10;;;;;;;;;;5334356;26;20542;-80
2024/04/26 13:08:51;;;;;;;0.20;0.00;;;;;;;;;;5354742;26;20000;-80
2024/04/26 13:11:20;;;;;;;0.20;0.10;;;;;;;;;;5354366;26;19996;-83
2024/04/26 13:13:46;;;;;;;0.20;0.00;;;;;;;;;;5354101;26;20029;-80
2024/04/26 13:16:16;;;;;;;0.20;0.10;;;;;;;;;;5364849;26;20055;-81
2024/04/26 13:18:45;;;;;;;0.20;0.10;;;;;;;;;;5357909;26;20008;-80
2024/04/26 13:21:12;;;;;;;0.20;0.10;;;;;;;;;;5354134;26;20009;-81
2024/04/26 13:23:38;;;;;;;0.20;0.10;;;;;;;;;;5352978;26;22408;-82
2024/04/26 13:26:05;;;;;;;0.20;0.10;;;;;;;;;;5351026;26;20323;-81
2024/04/26 13:28:31;;;;;;;0.20;0.00;;;;;;;;;;5357393;26;19997;-83
2024/04/26 13:30:57;;;;;;;0.20;0.10;;;;;;;;;;5358180;26;20741;-83
2024/04/26 13:33:24;;;;;;;0.20;0.10;;;;;;;;;;5349053;26;20000;-82
2024/04/26 13:35:50;;;;;;;0.20;0.00;;;;;;;;;;5363956;26;20009;-82
2024/04/26 13:38:16;;;;;;;0.20;0.00;;;;;;;;;;5363459;26;20078;-80
2024/04/26 13:40:42;;;;;;;0.20;0.10;;;;;;;;;;5357312;26;20001;-79
2024/04/26 13:43:09;;;;;;;0.20;0.05;;;;;;;;;;5355055;26;20005;-80
2024/04/26 13:45:35;;;;;;;0.20;0.10;;;;;;;;;;5369726;26;20048;-82
2024/04/26 13:48:01;;;;;;;0.20;0.00;;;;;;;;;;5356495;26;19997;-81
2024/04/26 13:50:27;;;;;;;0.20;0.10;;;;;;;;;;5355976;26;20444;-83
2024/04/26 13:52:54;;;;;;;0.20;0.08;;;;;;;;;;5328298;26;20393;-83
2024/04/26 13:55:22;;;;;;;0.20;0.10;;;;;;;;;;5360875;26;20008;-82
2024/04/26 13:57:48;;;;;;;0.20;0.00;;;;;;;;;;5355174;26;20025;-83
2024/04/26 14:00:14;;;;;;;0.20;0.00;;;;;;;;;;5363593;26;20013;-83
2024/04/26 14:02:40;;;;;;;0.20;0.00;;;;;;;;;;5362837;26;20469;-83
2024/04/26 14:05:07;;;;;;;0.20;0.10;;;;;;;;;;5366511;26;19997;-82
2024/04/26 14:07:33;;;;;;;0.20;0.10;;;;;;;;;;5350585;26;22168;-81
2024/04/26 14:10:00;;;;;;;0.20;0.10;;;;;;;;;;5364268;26;20016;-81
2024/04/26 14:12:28;;;;;;;0.20;0.10;;;;;;;;;;5350070;26;20020;-81
2024/04/26 14:14:54;;;;;;;0.20;0.00;;;;;;;;;;5355224;26;20407;-82
2024/04/26 14:17:22;;;;;;;0.20;0.10;;;;;;;;;;5361140;26;19997;-81
2024/04/26 14:19:48;;;;;;;0.20;0.10;;;;;;;;;;5358881;26;20008;-80
2024/04/26 14:22:15;;;;;;;0.20;0.03;;;;;;;;;;5353069;26;20114;-80
2024/04/26 14:24:42;;;;;;;0.20;0.10;;;;;;;;;;5358712;26;19996;-81
2024/04/26 14:27:08;;;;;;;0.20;0.10;;;;;;;;;;5360803;26;20060;-81
2024/04/26 14:29:34;;;;;;;0.20;0.00;;;;;;;;;;5364051;26;20042;-83
2024/04/26 14:32:08;;;;;;;0.20;0.10;;;;;;;;;;5360649;26;20007;-82
2024/04/26 14:34:37;;;;;;;0.20;0.00;;;;;;;;;;5354761;26;20304;-83
2024/04/26 14:37:03;;;;;;;0.20;0.10;;;;;;;;;;5370687;26;19995;-83
2024/04/26 14:39:35;;;;;;;0.20;0.10;;;;;;;;;;5352708;26;20001;-82
2024/04/26 14:42:01;;;;;;;0.20;0.10;;;;;;;;;;5361138;26;20001;-81
2024/04/26 14:44:27;;;;;;;0.20;0.10;;;;;;;;;;5349278;26;20013;-82
2024/04/26 14:46:54;;;;;;;0.20;0.00;;;;;;;;;;5353097;26;19997;-80
2024/04/26 14:49:20;;;;;;;0.20;0.10;;;;;;;;;;5364828;26;20004;-82
2024/04/26 14:51:46;;;;;;;0.20;0.10;;;;;;;;;;5363826;26;19997;-80
2024/04/26 14:54:13;;;;;;;0.20;0.00;;;;;;;;;;5363158;26;20020;-83
2024/04/26 14:56:40;;;;;;;0.20;0.10;;;;;;;;;;5365073;26;20011;-83
2024/04/26 14:59:06;;;;;;;0.63;0.15;;;;;;;;;;5360166;26;20000;-83
2024/04/26 15:01:32;;;;;;;0.20;0.10;;;;;;;;;;5362181;26;20015;-82
2024/04/26 15:03:58;;;;;;;0.20;0.00;;;;;;;;;;5359615;26;20013;-82
2024/04/26 15:06:30;;;;;;;0.20;0.00;;;;;;;;;;5363175;26;20000;-82
2024/04/26 15:08:58;;;;;;;0.20;0.10;;;;;;;;;;5382409;21;20025;-82
2024/04/26 15:11:28;;;;;;;0.20;0.10;;;;;;;;;;5289808;26;19998;-79
2024/04/26 15:14:00;;;;;;;0.20;0.10;;;;;;;;;;5294413;26;20349;-84
2024/04/26 15:16:48;;;;;;;0.20;0.00;;;;;;;;;;5292635;26;19997;-80
2024/04/26 15:19:19;;;;;;;0.20;0.10;;;;;;;;;;5255449;27;20074;-83
2024/04/26 15:22:05;;;;;;;0.20;0.03;;;;;;;;;;5254548;26;20022;-82
2024/04/26 15:24:53;;;;;;;0.20;0.10;;;;;;;;;;5215960;27;20006;-84
2024/04/26 15:27:25;;;;;;;0.20;0.10;;;;;;;;;;5253472;26;20050;-80
2024/04/26 15:29:51;;;;;;;0.20;0.10;;;;;;;;;;5278061;26;20002;-79
2024/04/26 15:32:18;;;;;;;0.20;0.10;;;;;;;;;;5262091;26;20084;-79
2024/04/26 15:34:59;;;;;;;0.20;0.00;;;;;;;;;;5229114;27;20016;-81
2024/04/26 15:37:25;;;;;;;0.20;0.00;;;;;;;;;;5274171;26;20530;-78
2024/04/26 15:39:52;;;;;;;0.20;0.10;;;;;;;;;;5252674;26;20076;-80
2024/04/26 15:42:18;;;;;;;0.20;0.00;;;;;;;;;;5256882;26;21383;-81
2024/04/26 15:44:46;;;;;;;0.20;0.00;;;;;;;;;;5260482;27;20579;-80
2024/04/26 15:47:18;;;;;;;0.20;0.10;;;;;;;;;;5283928;26;20600;-79
2024/04/26 15:49:44;;;;;;;0.20;0.10;;;;;;;;;;5250807;26;20002;-81
2024/04/26 15:52:11;;;;;;;0.20;0.00;;;;;;;;;;5255191;27;20005;-77
2024/04/26 15:54:37;;;;;;;0.20;0.00;;;;;;;;;;5254529;27;20063;-80
2024/04/26 15:57:05;;;;;;;0.20;0.00;;;;;;;;;;5277902;26;19997;-81
2024/04/26 15:59:31;;;;;;;0.20;0.10;;;;;;;;;;5258962;26;20010;-81
2024/04/26 16:02:02;;;;;;;0.20;0.10;;;;;;;;;;5255315;27;20357;-80
2024/04/26 16:04:31;;;;;;;0.20;0.08;;;;;;;;;;5245469;26;19998;-81
2024/04/26 16:06:57;;;;;;;0.20;0.10;;;;;;;;;;5265086;27;20002;-81